Time;durP1;ratioP1;P1;durP2;ratioP2;P2;SDS_P1;SDS_P2;PMS_P1;PMS_P2;Temp;Humidity;BMP_temperature;BMP_pressure;BME280_temperature;BME280_humidity;BME280_pressure;Samples;Min_cycle;Max_cycle;Signal;HPM_P1;HPM_P2
2022/06/24 00:00:11;;;;;;;17.17;12.23;;;;;;;;;;4975011;28;20154;-61
2022/06/24 00:02:39;;;;;;;16.67;12.15;;;;;;;;;;4975119;28;20034;-61
2022/06/24 00:05:07;;;;;;;24.23;12.70;;;;;;;;;;4975275;28;20081;-61
2022/06/24 00:07:44;;;;;;;26.05;12.68;;;;;;;;;;4974736;28;20537;-61
2022/06/24 00:10:14;;;;;;;17.77;11.52;;;;;;;;;;4975131;28;20026;-61
2022/06/24 00:12:40;;;;;;;19.50;11.52;;;;;;;;;;4974855;28;20035;-61
2022/06/24 00:15:06;;;;;;;20.83;11.98;;;;;;;;;;4975919;28;20391;-61
2022/06/24 00:17:32;;;;;;;16.70;11.15;;;;;;;;;;4994220;28;20026;-61
2022/06/24 00:20:00;;;;;;;18.38;11.00;;;;;;;;;;4994449;28;20037;-61
2022/06/24 00:22:27;;;;;;;17.90;10.13;;;;;;;;;;4994284;28;20100;-61
2022/06/24 00:25:26;;;;;;;19.17;10.90;;;;;;;;;;4993873;28;20042;-61
2022/06/24 00:27:59;;;;;;;18.70;9.90;;;;;;;;;;4972265;28;20093;-61
2022/06/24 00:30:25;;;;;;;13.38;9.73;;;;;;;;;;4971932;28;20056;-61
2022/06/24 00:32:51;;;;;;;19.10;10.25;;;;;;;;;;4972393;28;20035;-61
2022/06/24 00:35:18;;;;;;;15.57;9.23;;;;;;;;;;4969105;28;20091;-61
2022/06/24 00:37:45;;;;;;;14.70;9.40;;;;;;;;;;4952877;29;20070;-61
2022/06/24 00:40:11;;;;;;;19.90;9.13;;;;;;;;;;4953283;29;20034;-61
2022/06/24 00:42:47;;;;;;;13.77;9.50;;;;;;;;;;4952907;29;20031;-61
2022/06/24 00:45:13;;;;;;;10.52;8.32;;;;;;;;;;4953157;29;20074;-61
2022/06/24 00:47:40;;;;;;;16.63;8.95;;;;;;;;;;4952846;29;20075;-61
2022/06/24 00:50:17;;;;;;;13.63;8.20;;;;;;;;;;4952953;28;20051;-61
2022/06/24 00:52:45;;;;;;;14.73;8.35;;;;;;;;;;4952663;29;20430;-61
2022/06/24 00:55:11;;;;;;;14.27;8.30;;;;;;;;;;4954495;28;20555;-61
2022/06/24 00:57:39;;;;;;;11.00;6.88;;;;;;;;;;4971658;28;20113;-61
2022/06/24 01:00:05;;;;;;;10.65;6.72;;;;;;;;;;4972242;28;20031;-61
2022/06/24 01:02:32;;;;;;;13.77;5.85;;;;;;;;;;4972222;28;20039;-61
2022/06/24 01:05:08;;;;;;;15.38;7.22;;;;;;;;;;4987088;28;20367;-61
2022/06/24 01:07:41;;;;;;;15.32;6.90;;;;;;;;;;4993578;28;20034;-61
2022/06/24 01:10:08;;;;;;;11.32;6.65;;;;;;;;;;4993632;28;20030;-61
2022/06/24 01:12:35;;;;;;;15.55;7.03;;;;;;;;;;4992985;28;20037;-61
2022/06/24 01:15:01;;;;;;;8.48;6.03;;;;;;;;;;4992763;28;20109;-61
2022/06/24 01:17:28;;;;;;;12.10;6.28;;;;;;;;;;4993534;28;20553;-61
2022/06/24 01:19:54;;;;;;;11.05;6.47;;;;;;;;;;4993459;28;20050;-61
2022/06/24 01:22:23;;;;;;;10.60;5.97;;;;;;;;;;4988208;28;20023;-61
2022/06/24 01:24:50;;;;;;;11.68;5.97;;;;;;;;;;4973632;28;20045;-61
2022/06/24 01:27:16;;;;;;;9.68;5.88;;;;;;;;;;4973188;28;20027;-61
2022/06/24 01:29:42;;;;;;;11.73;6.32;;;;;;;;;;4973308;28;20060;-61
2022/06/24 01:32:09;;;;;;;11.73;5.65;;;;;;;;;;4973576;28;20027;-61
2022/06/24 01:34:35;;;;;;;11.82;6.50;;;;;;;;;;4973764;28;20038;-61
2022/06/24 01:37:02;;;;;;;10.88;5.57;;;;;;;;;;4973502;28;20023;-61
2022/06/24 01:39:28;;;;;;;12.07;5.65;;;;;;;;;;4973752;28;20495;-61
2022/06/24 01:41:54;;;;;;;10.63;5.38;;;;;;;;;;4972743;28;20027;-61
2022/06/24 01:44:22;;;;;;;12.30;5.32;;;;;;;;;;4973577;28;20031;-61
2022/06/24 01:46:48;;;;;;;9.73;5.85;;;;;;;;;;4973342;28;20479;-61
2022/06/24 01:49:14;;;;;;;10.15;5.38;;;;;;;;;;4973601;28;20038;-61
2022/06/24 01:51:42;;;;;;;14.10;5.00;;;;;;;;;;4987973;28;20029;-61
2022/06/24 01:54:09;;;;;;;13.15;5.93;;;;;;;;;;4992793;28;20026;-61
2022/06/24 01:56:35;;;;;;;10.65;5.80;;;;;;;;;;4992427;28;20030;-61
2022/06/24 01:59:01;;;;;;;8.90;5.32;;;;;;;;;;4991383;28;20031;-61
2022/06/24 02:01:28;;;;;;;11.77;6.03;;;;;;;;;;4981781;28;20018;-61
2022/06/24 02:03:54;;;;;;;14.60;5.15;;;;;;;;;;4973128;28;20026;-61
2022/06/24 02:06:20;;;;;;;11.95;5.25;;;;;;;;;;4973274;28;20471;-61
2022/06/24 02:08:46;;;;;;;12.13;5.65;;;;;;;;;;4973303;28;20034;-61
2022/06/24 02:14:03;;;;;;;10.65;5.35;;;;;;;;;;4973233;28;20410;-61
2022/06/24 02:16:29;;;;;;;12.73;6.43;;;;;;;;;;4973235;28;20543;-61
2022/06/24 02:18:56;;;;;;;10.25;5.63;;;;;;;;;;4973073;28;20135;-61
2022/06/24 02:21:23;;;;;;;12.20;6.20;;;;;;;;;;4973112;28;20059;-61
2022/06/24 02:23:49;;;;;;;9.05;4.90;;;;;;;;;;4973130;28;20039;-61
2022/06/24 02:26:15;;;;;;;9.55;5.97;;;;;;;;;;4972851;28;20037;-61
2022/06/24 02:28:41;;;;;;;9.60;5.57;;;;;;;;;;4972777;28;20405;-61
2022/06/24 02:31:07;;;;;;;11.75;6.60;;;;;;;;;;4991528;28;20121;-61
2022/06/24 02:33:34;;;;;;;11.88;6.57;;;;;;;;;;4992550;28;20022;-61
2022/06/24 02:36:00;;;;;;;7.88;5.60;;;;;;;;;;4992382;28;20026;-61
2022/06/24 02:38:26;;;;;;;15.85;7.05;;;;;;;;;;4993882;28;20042;-61
2022/06/24 02:40:52;;;;;;;18.33;6.40;;;;;;;;;;4978083;28;20034;-61
2022/06/24 02:43:20;;;;;;;10.98;5.30;;;;;;;;;;4976903;28;20034;-61
2022/06/24 02:45:47;;;;;;;14.20;5.72;;;;;;;;;;4976704;28;20038;-61
2022/06/24 02:48:14;;;;;;;12.50;6.50;;;;;;;;;;4976274;28;20118;-61
2022/06/24 02:50:59;;;;;;;13.15;6.28;;;;;;;;;;4983150;28;20049;-61
2022/06/24 02:53:25;;;;;;;13.40;5.53;;;;;;;;;;4995839;28;20026;-61
2022/06/24 02:55:52;;;;;;;18.02;6.65;;;;;;;;;;4995700;28;20035;-62
2022/06/24 02:58:19;;;;;;;12.90;6.78;;;;;;;;;;4985761;28;20027;-61
2022/06/24 03:00:45;;;;;;;13.90;6.97;;;;;;;;;;4976647;28;20097;-61
2022/06/24 03:03:12;;;;;;;15.02;7.43;;;;;;;;;;4976394;28;20027;-61
2022/06/24 03:05:39;;;;;;;13.45;7.57;;;;;;;;;;4975296;28;20078;-61
2022/06/24 03:08:05;;;;;;;14.00;7.68;;;;;;;;;;4978626;28;20498;-61
2022/06/24 03:10:33;;;;;;;19.15;8.70;;;;;;;;;;4976678;28;20447;-61
2022/06/24 03:12:59;;;;;;;11.40;7.93;;;;;;;;;;4987629;28;20498;-61
2022/06/24 03:15:25;;;;;;;14.20;7.65;;;;;;;;;;4980552;28;20505;-61
2022/06/24 03:17:51;;;;;;;15.18;8.88;;;;;;;;;;4981678;28;20045;-61
2022/06/24 03:20:17;;;;;;;22.63;8.35;;;;;;;;;;4994740;28;20018;-61
2022/06/24 03:22:43;;;;;;;16.05;8.68;;;;;;;;;;4989720;28;20058;-61
2022/06/24 03:25:10;;;;;;;15.98;8.20;;;;;;;;;;4992229;28;20122;-61
2022/06/24 03:27:36;;;;;;;12.80;7.97;;;;;;;;;;4976149;28;20058;-61
2022/06/24 03:30:03;;;;;;;16.15;9.73;;;;;;;;;;4984722;28;20414;-61
2022/06/24 03:32:30;;;;;;;18.77;8.15;;;;;;;;;;4981947;28;20030;-61
2022/06/24 03:34:56;;;;;;;14.10;8.43;;;;;;;;;;4981801;28;20027;-61
2022/06/24 03:37:22;;;;;;;14.32;8.82;;;;;;;;;;4978823;28;20023;-61
2022/06/24 03:39:48;;;;;;;17.42;8.77;;;;;;;;;;4982858;28;20030;-61
2022/06/24 03:42:14;;;;;;;15.25;8.45;;;;;;;;;;4984499;28;20026;-61
2022/06/24 03:44:40;;;;;;;18.63;9.20;;;;;;;;;;4989052;28;20022;-61
2022/06/24 03:47:06;;;;;;;13.82;8.63;;;;;;;;;;4996853;28;20034;-61
2022/06/24 03:49:32;;;;;;;20.15;9.18;;;;;;;;;;4990843;28;20110;-61
2022/06/24 03:51:59;;;;;;;20.80;9.23;;;;;;;;;;4994765;28;20065;-61
2022/06/24 03:54:25;;;;;;;14.52;8.25;;;;;;;;;;4993242;28;20037;-61
2022/06/24 03:56:51;;;;;;;16.67;8.93;;;;;;;;;;4993576;28;20593;-61
2022/06/24 03:59:18;;;;;;;20.42;9.27;;;;;;;;;;4990402;28;20421;-61
2022/06/24 04:01:44;;;;;;;17.05;8.85;;;;;;;;;;4993561;28;20057;-61
2022/06/24 04:04:10;;;;;;;22.42;10.68;;;;;;;;;;5001994;28;20521;-61
2022/06/24 04:06:36;;;;;;;18.35;8.50;;;;;;;;;;4998949;28;20390;-61
2022/06/24 04:09:03;;;;;;;18.45;9.95;;;;;;;;;;4992515;28;20112;-61
2022/06/24 04:11:29;;;;;;;19.85;9.52;;;;;;;;;;4998718;28;20041;-61
2022/06/24 04:13:55;;;;;;;20.27;9.60;;;;;;;;;;4993114;28;20402;-61
2022/06/24 04:16:22;;;;;;;16.63;9.43;;;;;;;;;;4991242;28;20492;-60
2022/06/24 04:18:48;;;;;;;18.05;10.02;;;;;;;;;;4991814;28;20100;-61
2022/06/24 04:21:15;;;;;;;15.10;9.10;;;;;;;;;;4984637;28;20100;-61
2022/06/24 04:23:42;;;;;;;16.77;9.40;;;;;;;;;;4974752;28;20031;-61
2022/06/24 04:26:09;;;;;;;15.18;8.98;;;;;;;;;;4974745;28;20074;-61
2022/06/24 04:28:35;;;;;;;18.50;10.18;;;;;;;;;;4978446;28;20030;-61
2022/06/24 04:31:02;;;;;;;18.80;8.93;;;;;;;;;;4993902;28;20036;-61
2022/06/24 04:33:29;;;;;;;18.92;9.65;;;;;;;;;;4994013;28;20026;-61
2022/06/24 04:35:55;;;;;;;20.38;10.88;;;;;;;;;;4993930;28;20093;-61
2022/06/24 04:38:21;;;;;;;16.85;9.30;;;;;;;;;;4993999;28;20033;-61
2022/06/24 04:40:47;;;;;;;19.45;10.10;;;;;;;;;;4976808;28;20019;-61
2022/06/24 04:43:13;;;;;;;18.73;10.10;;;;;;;;;;4974518;28;20030;-61
2022/06/24 04:45:40;;;;;;;24.25;9.52;;;;;;;;;;4974540;28;20023;-61
2022/06/24 04:48:06;;;;;;;22.63;10.85;;;;;;;;;;4982387;28;20030;-61
2022/06/24 04:50:33;;;;;;;18.10;10.32;;;;;;;;;;4991357;28;20433;-60
2022/06/24 04:52:59;;;;;;;17.80;10.65;;;;;;;;;;4981888;28;20075;-61
2022/06/24 04:55:25;;;;;;;19.85;10.93;;;;;;;;;;4977061;28;20057;-61
2022/06/24 04:57:51;;;;;;;20.05;11.38;;;;;;;;;;4978825;28;20031;-61
2022/06/24 05:00:18;;;;;;;23.73;13.13;;;;;;;;;;4973506;28;20517;-61
2022/06/24 05:02:44;;;;;;;24.50;11.55;;;;;;;;;;4973048;28;20506;-61
2022/06/24 05:05:11;;;;;;;18.98;11.50;;;;;;;;;;4973783;28;20031;-61
2022/06/24 05:07:37;;;;;;;20.83;13.15;;;;;;;;;;4974215;28;20430;-61
2022/06/24 05:10:03;;;;;;;29.55;12.80;;;;;;;;;;4973473;28;20030;-61
2022/06/24 05:12:30;;;;;;;22.88;13.10;;;;;;;;;;4973600;28;20018;-61
2022/06/24 05:14:56;;;;;;;29.17;12.60;;;;;;;;;;4982119;28;20037;-61
2022/06/24 05:17:22;;;;;;;28.73;13.68;;;;;;;;;;4984419;28;20062;-61
2022/06/24 05:19:49;;;;;;;22.27;13.05;;;;;;;;;;4986766;28;20371;-60
2022/06/24 05:22:15;;;;;;;26.75;14.23;;;;;;;;;;4981970;28;20025;-61
2022/06/24 05:24:41;;;;;;;26.98;13.23;;;;;;;;;;4987393;28;20117;-67
2022/06/24 05:27:07;;;;;;;28.65;13.93;;;;;;;;;;4989607;28;20038;-66
2022/06/24 05:29:33;;;;;;;26.83;13.57;;;;;;;;;;4991501;28;20137;-61
2022/06/24 05:31:59;;;;;;;28.80;13.88;;;;;;;;;;4989844;28;20383;-61
2022/06/24 05:34:25;;;;;;;29.63;14.57;;;;;;;;;;4979466;28;20146;-60
2022/06/24 05:36:51;;;;;;;30.35;15.93;;;;;;;;;;4991743;28;20563;-60
2022/06/24 05:39:17;;;;;;;26.10;15.48;;;;;;;;;;4992885;28;20057;-60
2022/06/24 05:41:44;;;;;;;30.67;15.65;;;;;;;;;;4993052;28;20475;-60
2022/06/24 05:44:11;;;;;;;30.73;16.92;;;;;;;;;;4992847;28;20038;-60
2022/06/24 05:46:38;;;;;;;30.67;16.48;;;;;;;;;;4992992;28;20092;-60
2022/06/24 05:49:04;;;;;;;31.92;17.45;;;;;;;;;;4983305;28;20030;-60
2022/06/24 05:51:31;;;;;;;32.63;16.00;;;;;;;;;;4973205;28;20027;-60
2022/06/24 05:56:42;;;;;;;34.88;16.83;;;;;;;;;;4981540;28;20022;-63
2022/06/24 05:59:08;;;;;;;34.50;17.77;;;;;;;;;;4974670;28;20049;-63
2022/06/24 06:01:34;;;;;;;30.67;16.33;;;;;;;;;;4976871;28;20105;-63
2022/06/24 06:04:00;;;;;;;32.42;17.80;;;;;;;;;;4989484;28;20030;-63
2022/06/24 06:06:26;;;;;;;31.55;17.80;;;;;;;;;;4992288;28;20037;-63
2022/06/24 06:08:52;;;;;;;29.80;18.00;;;;;;;;;;4977547;28;20487;-63
2022/06/24 06:11:20;;;;;;;29.17;16.27;;;;;;;;;;4992230;28;20030;-63
2022/06/24 06:13:47;;;;;;;32.95;17.15;;;;;;;;;;4986501;28;20046;-63
2022/06/24 06:16:13;;;;;;;34.28;17.42;;;;;;;;;;4992856;28;20062;-63
2022/06/24 06:18:40;;;;;;;30.45;16.92;;;;;;;;;;4996426;28;20026;-63
2022/06/24 06:21:07;;;;;;;31.88;17.45;;;;;;;;;;4994025;28;20113;-63
2022/06/24 06:23:33;;;;;;;33.47;16.40;;;;;;;;;;4991432;28;20466;-63
2022/06/24 06:26:01;;;;;;;31.45;17.95;;;;;;;;;;4995098;28;20022;-63
2022/06/24 06:28:27;;;;;;;29.65;17.05;;;;;;;;;;4984967;28;20041;-63
2022/06/24 06:30:53;;;;;;;31.08;16.70;;;;;;;;;;4986528;28;20069;-63
2022/06/24 06:33:19;;;;;;;26.77;15.48;;;;;;;;;;4988602;28;20034;-63
2022/06/24 06:35:45;;;;;;;26.55;16.75;;;;;;;;;;4992485;28;20529;-63
2022/06/24 06:38:12;;;;;;;30.77;16.20;;;;;;;;;;4991288;28;20030;-63
2022/06/24 06:40:38;;;;;;;30.90;15.85;;;;;;;;;;4992159;28;20081;-63
2022/06/24 06:43:05;;;;;;;28.85;15.85;;;;;;;;;;4977953;28;20406;-63
2022/06/24 06:45:34;;;;;;;29.88;15.38;;;;;;;;;;4984246;28;20031;-63
2022/06/24 06:48:00;;;;;;;25.80;14.25;;;;;;;;;;4988014;28;20113;-63
2022/06/24 06:50:27;;;;;;;25.77;15.35;;;;;;;;;;4991356;28;20522;-63
2022/06/24 06:52:53;;;;;;;27.52;15.13;;;;;;;;;;4977635;28;20027;-63
2022/06/24 06:55:19;;;;;;;31.77;15.52;;;;;;;;;;4982519;28;20105;-64
2022/06/24 06:57:46;;;;;;;27.88;14.60;;;;;;;;;;4975736;28;20533;-64
2022/06/24 07:00:12;;;;;;;40.00;16.73;;;;;;;;;;4975726;28;20042;-64
2022/06/24 07:02:38;;;;;;;26.73;15.20;;;;;;;;;;4981900;28;20018;-63
2022/06/24 07:05:05;;;;;;;23.15;13.75;;;;;;;;;;4980056;28;20027;-63
2022/06/24 07:07:31;;;;;;;26.38;15.50;;;;;;;;;;4977116;28;20034;-63
2022/06/24 07:09:58;;;;;;;27.80;14.02;;;;;;;;;;4986554;28;20030;-62
2022/06/24 07:12:24;;;;;;;33.50;15.93;;;;;;;;;;4987039;28;20025;-63
2022/06/24 07:14:50;;;;;;;35.78;16.55;;;;;;;;;;4981871;28;20073;-62
2022/06/24 07:17:17;;;;;;;30.15;14.95;;;;;;;;;;4988710;28;20561;-63
2022/06/24 07:19:44;;;;;;;23.42;14.70;;;;;;;;;;4989974;28;20027;-63
2022/06/24 07:22:10;;;;;;;27.10;15.25;;;;;;;;;;4988469;28;20026;-63
2022/06/24 07:24:36;;;;;;;25.17;13.98;;;;;;;;;;4987290;28;20054;-63
2022/06/24 07:27:06;;;;;;;24.77;14.25;;;;;;;;;;4977499;28;20038;-63
2022/06/24 07:29:35;;;;;;;23.98;13.85;;;;;;;;;;4989704;28;20097;-63
2022/06/24 07:32:02;;;;;;;25.75;14.52;;;;;;;;;;4983952;28;20031;-63
2022/06/24 07:34:32;;;;;;;22.17;12.05;;;;;;;;;;4982814;28;20030;-62
2022/06/24 07:36:58;;;;;;;22.00;12.55;;;;;;;;;;4987095;28;20445;-63
2022/06/24 07:39:24;;;;;;;19.55;11.40;;;;;;;;;;4987684;28;20019;-62
2022/06/24 07:41:51;;;;;;;21.02;11.27;;;;;;;;;;4976886;28;20022;-63
2022/06/24 07:44:17;;;;;;;14.55;10.15;;;;;;;;;;4986661;28;20494;-63
2022/06/24 07:46:43;;;;;;;15.35;9.75;;;;;;;;;;4978793;28;20474;-63
2022/06/24 07:49:09;;;;;;;22.80;11.20;;;;;;;;;;4989663;28;20031;-63
2022/06/24 07:51:35;;;;;;;23.08;10.65;;;;;;;;;;4982689;28;20492;-62
2022/06/24 07:54:01;;;;;;;15.82;9.77;;;;;;;;;;4978690;28;20026;-62
2022/06/24 07:59:12;;;;;;;10.30;5.50;;;;;;;;;;4985883;28;20363;-62
2022/06/24 08:01:39;;;;;;;12.38;6.38;;;;;;;;;;4993682;28;20026;-63
2022/06/24 08:04:07;;;;;;;9.30;5.18;;;;;;;;;;4982499;28;20370;-62
2022/06/24 08:06:37;;;;;;;8.30;5.47;;;;;;;;;;4978026;28;20422;-63
2022/06/24 08:09:04;;;;;;;8.18;5.47;;;;;;;;;;4977658;28;20052;-62
2022/06/24 08:11:30;;;;;;;7.78;5.40;;;;;;;;;;4981287;28;20559;-62
2022/06/24 08:13:56;;;;;;;12.20;5.47;;;;;;;;;;4982747;28;20141;-62
2022/06/24 08:16:22;;;;;;;9.75;5.10;;;;;;;;;;4991954;28;20093;-62
2022/06/24 08:18:52;;;;;;;8.50;5.43;;;;;;;;;;4975420;28;20037;-62
2022/06/24 08:21:19;;;;;;;17.73;6.45;;;;;;;;;;4987223;28;20018;-62
2022/06/24 08:23:45;;;;;;;10.63;5.20;;;;;;;;;;4992326;28;20026;-62
2022/06/24 08:26:11;;;;;;;8.18;5.93;;;;;;;;;;4977002;28;20026;-63
2022/06/24 08:28:37;;;;;;;9.75;6.00;;;;;;;;;;4984683;28;20054;-63
2022/06/24 08:31:04;;;;;;;9.85;4.80;;;;;;;;;;4981697;28;20046;-63
2022/06/24 08:33:30;;;;;;;14.80;5.70;;;;;;;;;;4981427;28;20023;-63
2022/06/24 08:35:56;;;;;;;10.52;6.32;;;;;;;;;;4982026;28;20034;-62
2022/06/24 08:38:22;;;;;;;12.20;5.95;;;;;;;;;;4984965;28;20355;-62
2022/06/24 08:40:50;;;;;;;8.05;5.63;;;;;;;;;;4988911;28;20026;-62
2022/06/24 08:43:16;;;;;;;12.90;5.20;;;;;;;;;;4987197;28;20023;-62
2022/06/24 08:45:43;;;;;;;10.15;4.97;;;;;;;;;;4984812;28;20133;-62
2022/06/24 08:48:09;;;;;;;12.35;5.75;;;;;;;;;;4979473;28;20079;-62
2022/06/24 08:50:35;;;;;;;10.50;5.45;;;;;;;;;;4980586;28;20088;-60
2022/06/24 08:53:09;;;;;;;8.95;5.20;;;;;;;;;;4987165;28;20057;-60
2022/06/24 08:55:39;;;;;;;8.90;4.88;;;;;;;;;;4985752;28;20030;-60
2022/06/24 08:58:12;;;;;;;8.90;4.72;;;;;;;;;;4981744;28;20030;-60
2022/06/24 09:00:39;;;;;;;5.68;4.53;;;;;;;;;;4977246;28;20517;-60
2022/06/24 09:03:06;;;;;;;6.60;4.32;;;;;;;;;;4976654;28;20034;-60
2022/06/24 09:05:32;;;;;;;9.27;4.55;;;;;;;;;;4980514;28;20037;-61
2022/06/24 09:08:09;;;;;;;7.68;4.10;;;;;;;;;;4985169;28;20042;-60
2022/06/24 09:10:36;;;;;;;14.85;4.78;;;;;;;;;;4976530;28;20491;-60
2022/06/24 09:13:03;;;;;;;7.70;4.68;;;;;;;;;;4984136;28;20481;-60
2022/06/24 09:15:29;;;;;;;11.60;4.28;;;;;;;;;;4984394;28;20022;-60
2022/06/24 09:17:55;;;;;;;7.72;4.72;;;;;;;;;;4983760;28;20029;-60
2022/06/24 09:20:21;;;;;;;11.85;5.60;;;;;;;;;;4981354;28;20030;-62
2022/06/24 09:22:48;;;;;;;9.95;4.65;;;;;;;;;;4983448;28;20470;-62
2022/06/24 09:25:14;;;;;;;12.40;4.30;;;;;;;;;;4983701;28;20014;-62
2022/06/24 09:27:44;;;;;;;7.00;4.03;;;;;;;;;;4981360;28;20045;-62
2022/06/24 09:30:12;;;;;;;7.85;4.30;;;;;;;;;;4982264;28;20053;-62
2022/06/24 09:32:53;;;;;;;5.75;4.07;;;;;;;;;;4984329;28;20026;-62
2022/06/24 09:35:20;;;;;;;8.73;3.97;;;;;;;;;;4981953;28;20026;-62
2022/06/24 09:37:47;;;;;;;9.90;3.95;;;;;;;;;;4982869;28;20108;-62
2022/06/24 09:40:25;;;;;;;9.93;3.80;;;;;;;;;;4979700;28;20299;-63
2022/06/24 09:43:05;;;;;;;7.63;3.38;;;;;;;;;;4977484;28;20050;-63
2022/06/24 09:45:54;;;;;;;6.80;3.30;;;;;;;;;;4978945;28;20485;-63
2022/06/24 09:48:28;;;;;;;9.07;4.22;;;;;;;;;;4974509;28;20027;-63
2022/06/24 09:50:58;;;;;;;7.30;3.40;;;;;;;;;;4972209;28;20388;-63
2022/06/24 09:53:25;;;;;;;11.50;3.45;;;;;;;;;;4979954;28;20376;-63
2022/06/24 09:55:53;;;;;;;8.27;3.55;;;;;;;;;;4976105;28;20023;-63
2022/06/24 09:58:19;;;;;;;9.35;2.70;;;;;;;;;;4981277;28;20069;-64
2022/06/24 10:00:46;;;;;;;7.57;3.15;;;;;;;;;;4983389;28;20026;-64
2022/06/24 10:03:13;;;;;;;9.27;2.92;;;;;;;;;;4982051;28;20038;-63
2022/06/24 10:05:41;;;;;;;8.93;2.83;;;;;;;;;;4981063;28;20018;-64
2022/06/24 10:08:10;;;;;;;8.32;2.72;;;;;;;;;;4976400;28;20034;-63
2022/06/24 10:10:39;;;;;;;7.18;2.45;;;;;;;;;;4976781;28;20061;-64
2022/06/24 10:13:10;;;;;;;8.13;2.63;;;;;;;;;;4979769;28;20153;-64
2022/06/24 10:15:37;;;;;;;7.32;2.20;;;;;;;;;;4978818;28;20072;-64
2022/06/24 10:18:08;;;;;;;9.88;2.97;;;;;;;;;;4980506;28;20027;-64
2022/06/24 10:20:35;;;;;;;6.20;2.58;;;;;;;;;;4982539;28;20023;-64
2022/06/24 10:23:01;;;;;;;7.53;2.25;;;;;;;;;;4982190;28;20035;-64
2022/06/24 10:25:45;;;;;;;7.35;2.33;;;;;;;;;;4975910;28;20149;-64
2022/06/24 10:28:12;;;;;;;5.72;2.00;;;;;;;;;;4978717;28;20018;-64
2022/06/24 10:30:40;;;;;;;6.28;2.10;;;;;;;;;;4977663;28;20065;-64
2022/06/24 10:33:13;;;;;;;6.65;2.13;;;;;;;;;;4974103;28;20030;-64
2022/06/24 10:35:55;;;;;;;6.03;2.28;;;;;;;;;;4977318;28;20065;-64
2022/06/24 10:38:22;;;;;;;7.65;2.53;;;;;;;;;;4976638;28;20073;-64
2022/06/24 10:40:49;;;;;;;9.73;2.70;;;;;;;;;;4983435;28;20038;-64
2022/06/24 10:43:33;;;;;;;4.32;2.53;;;;;;;;;;4978306;28;20114;-64
2022/06/24 10:46:11;;;;;;;4.70;2.00;;;;;;;;;;4982557;28;20046;-64
2022/06/24 10:48:43;;;;;;;5.78;2.25;;;;;;;;;;4977938;28;20495;-64
2022/06/24 10:51:17;;;;;;;4.97;2.20;;;;;;;;;;4979108;28;20023;-64
2022/06/24 10:54:02;;;;;;;6.10;2.47;;;;;;;;;;4981452;28;20048;-64
2022/06/24 10:56:39;;;;;;;6.57;2.42;;;;;;;;;;4980679;28;20436;-64
2022/06/24 10:59:05;;;;;;;4.50;1.77;;;;;;;;;;4980070;28;20077;-64
2022/06/24 11:01:32;;;;;;;9.63;2.72;;;;;;;;;;4983187;28;20023;-64
2022/06/24 11:04:03;;;;;;;8.48;2.50;;;;;;;;;;4986176;28;20026;-64
2022/06/24 11:06:29;;;;;;;11.40;2.72;;;;;;;;;;4984993;28;20050;-64
2022/06/24 11:08:56;;;;;;;6.72;1.95;;;;;;;;;;4974901;28;20033;-64
2022/06/24 11:11:29;;;;;;;5.85;2.33;;;;;;;;;;4982628;28;20030;-64
2022/06/24 11:13:55;;;;;;;7.68;1.98;;;;;;;;;;4987854;28;20030;-64
2022/06/24 11:16:21;;;;;;;2.95;2.08;;;;;;;;;;4982452;28;20082;-64
2022/06/24 11:18:50;;;;;;;9.82;2.38;;;;;;;;;;4987670;28;20098;-64
2022/06/24 11:21:20;;;;;;;3.85;1.55;;;;;;;;;;4988132;28;20025;-64
2022/06/24 11:23:47;;;;;;;5.90;2.03;;;;;;;;;;4984625;28;20019;-64
2022/06/24 11:26:17;;;;;;;5.00;2.50;;;;;;;;;;4982548;28;20073;-64
2022/06/24 11:28:48;;;;;;;6.72;1.80;;;;;;;;;;4981950;28;20459;-63
2022/06/24 11:31:21;;;;;;;5.63;1.85;;;;;;;;;;4986673;28;20541;-64
2022/06/24 11:33:48;;;;;;;5.53;1.50;;;;;;;;;;4984272;28;20027;-63
2022/06/24 11:36:20;;;;;;;5.60;1.60;;;;;;;;;;4980491;28;20505;-63
2022/06/24 11:38:53;;;;;;;3.80;1.23;;;;;;;;;;4980676;28;20027;-64
2022/06/24 11:41:29;;;;;;;6.60;1.73;;;;;;;;;;4983255;28;20023;-64
2022/06/24 11:43:56;;;;;;;4.28;1.20;;;;;;;;;;4984424;28;20105;-64
2022/06/24 11:46:22;;;;;;;3.53;1.20;;;;;;;;;;4992493;28;20041;-64
2022/06/24 11:48:48;;;;;;;4.78;1.05;;;;;;;;;;4984248;28;20097;-64
2022/06/24 11:51:18;;;;;;;1.83;1.08;;;;;;;;;;4986074;28;20042;-64
2022/06/24 11:54:01;;;;;;;4.32;0.88;;;;;;;;;;4979673;28;20029;-64
2022/06/24 11:56:29;;;;;;;3.28;1.42;;;;;;;;;;4980994;28;20022;-64
2022/06/24 11:58:56;;;;;;;1.00;0.80;;;;;;;;;;4984750;28;20023;-64
2022/06/24 12:01:23;;;;;;;1.85;0.70;;;;;;;;;;4983953;28;20039;-64
2022/06/24 12:03:50;;;;;;;7.28;0.90;;;;;;;;;;4979928;28;20101;-64
2022/06/24 12:06:17;;;;;;;3.22;0.85;;;;;;;;;;4974832;28;20037;-64
2022/06/24 12:08:44;;;;;;;3.40;1.15;;;;;;;;;;4977803;28;20034;-64
2022/06/24 12:11:13;;;;;;;5.22;0.70;;;;;;;;;;4981260;28;20065;-64
2022/06/24 12:13:40;;;;;;;1.08;0.60;;;;;;;;;;4981209;28;20035;-64
2022/06/24 12:16:06;;;;;;;3.70;0.85;;;;;;;;;;4980064;28;20030;-64
2022/06/24 12:18:32;;;;;;;3.80;0.90;;;;;;;;;;4988548;28;20019;-65
2022/06/24 12:20:59;;;;;;;2.28;0.80;;;;;;;;;;4986535;28;20041;-64
2022/06/24 12:23:31;;;;;;;6.00;0.90;;;;;;;;;;4992011;28;20030;-64
2022/06/24 12:25:57;;;;;;;5.25;1.17;;;;;;;;;;4979924;28;20045;-64
2022/06/24 12:28:25;;;;;;;4.00;1.02;;;;;;;;;;4987021;28;20034;-64
2022/06/24 12:30:55;;;;;;;7.18;0.93;;;;;;;;;;4979960;28;20445;-64
2022/06/24 12:33:21;;;;;;;2.30;0.88;;;;;;;;;;4984786;28;20026;-64
2022/06/24 12:35:49;;;;;;;3.17;0.80;;;;;;;;;;4986594;28;20062;-64
2022/06/24 12:38:15;;;;;;;4.15;0.80;;;;;;;;;;4982828;28;20034;-64
2022/06/24 12:40:41;;;;;;;4.78;0.73;;;;;;;;;;4980699;28;20034;-64
2022/06/24 12:43:14;;;;;;;6.18;1.55;;;;;;;;;;4982027;28;20022;-64
2022/06/24 12:45:41;;;;;;;1.75;0.73;;;;;;;;;;4975907;28;20479;-64
2022/06/24 12:51:04;;;;;;;2.53;0.77;;;;;;;;;;4986494;28;20038;-64
2022/06/24 12:53:30;;;;;;;3.95;1.45;;;;;;;;;;4984403;28;20494;-64
2022/06/24 12:55:58;;;;;;;2.03;0.70;;;;;;;;;;4980483;28;20026;-64
2022/06/24 12:58:24;;;;;;;2.55;0.90;;;;;;;;;;4983678;28;20026;-64
2022/06/24 13:00:50;;;;;;;1.83;0.85;;;;;;;;;;4982553;28;20064;-64
2022/06/24 13:03:18;;;;;;;5.32;0.95;;;;;;;;;;4986224;28;20042;-64
2022/06/24 13:05:44;;;;;;;2.22;0.90;;;;;;;;;;4976527;28;20026;-64
2022/06/24 13:08:11;;;;;;;2.72;0.80;;;;;;;;;;4980550;28;20417;-64
2022/06/24 13:10:37;;;;;;;3.45;1.05;;;;;;;;;;4974521;28;20065;-64
2022/06/24 13:13:07;;;;;;;3.78;0.60;;;;;;;;;;4973719;28;20029;-64
2022/06/24 13:15:33;;;;;;;2.17;0.90;;;;;;;;;;4977461;28;20030;-64
2022/06/24 13:17:59;;;;;;;2.03;0.70;;;;;;;;;;4989093;28;20034;-64
2022/06/24 13:20:25;;;;;;;5.15;0.80;;;;;;;;;;4981430;28;20082;-64
2022/06/24 13:22:51;;;;;;;2.50;0.55;;;;;;;;;;4981918;28;20027;-64
2022/06/24 13:25:17;;;;;;;6.03;0.68;;;;;;;;;;4987876;28;20019;-64
2022/06/24 13:27:43;;;;;;;4.15;0.68;;;;;;;;;;4979563;28;20510;-64
2022/06/24 13:30:11;;;;;;;2.33;0.52;;;;;;;;;;4982607;28;20070;-64
2022/06/24 13:32:38;;;;;;;4.05;0.55;;;;;;;;;;4983912;28;20014;-64
2022/06/24 13:35:04;;;;;;;2.38;0.50;;;;;;;;;;4979707;28;20034;-64
2022/06/24 13:37:30;;;;;;;3.13;0.57;;;;;;;;;;4980138;28;20421;-64
2022/06/24 13:39:57;;;;;;;3.42;0.60;;;;;;;;;;4979872;28;20014;-64
2022/06/24 13:42:24;;;;;;;4.60;0.45;;;;;;;;;;4980776;28;20102;-64
2022/06/24 13:44:52;;;;;;;3.00;0.77;;;;;;;;;;4979591;28;20042;-64
2022/06/24 13:47:18;;;;;;;0.70;0.50;;;;;;;;;;4977857;28;20413;-64
2022/06/24 13:49:44;;;;;;;6.13;0.60;;;;;;;;;;4977415;28;20027;-64
2022/06/24 13:52:10;;;;;;;2.45;0.43;;;;;;;;;;4979250;28;20181;-64
2022/06/24 13:54:36;;;;;;;6.85;0.60;;;;;;;;;;4977445;28;20114;-64
2022/06/24 13:57:03;;;;;;;0.68;0.50;;;;;;;;;;4982149;28;20019;-64
2022/06/24 13:59:29;;;;;;;1.80;0.43;;;;;;;;;;4982588;28;20509;-64
2022/06/24 14:01:55;;;;;;;2.42;0.70;;;;;;;;;;4980505;28;20057;-64
2022/06/24 14:04:21;;;;;;;1.70;0.90;;;;;;;;;;4980900;28;20030;-64
2022/06/24 14:06:48;;;;;;;3.50;0.43;;;;;;;;;;4986682;28;20038;-64
2022/06/24 14:09:14;;;;;;;0.65;0.32;;;;;;;;;;4977857;28;20378;-64
2022/06/24 14:11:40;;;;;;;1.45;0.40;;;;;;;;;;4982166;28;20030;-64
2022/06/24 14:14:06;;;;;;;1.85;0.30;;;;;;;;;;4978841;28;20019;-64
2022/06/24 14:16:32;;;;;;;6.00;0.40;;;;;;;;;;4980702;28;20026;-64
2022/06/24 14:18:59;;;;;;;2.00;0.30;;;;;;;;;;4981107;28;20494;-64
2022/06/24 14:21:26;;;;;;;6.15;1.25;;;;;;;;;;4976826;28;20027;-64
2022/06/24 14:26:37;;;;;;;0.65;0.30;;;;;;;;;;4983492;28;20509;-64
2022/06/24 14:29:03;;;;;;;0.77;0.30;;;;;;;;;;4980163;28;20174;-64
2022/06/24 14:31:29;;;;;;;1.08;0.50;;;;;;;;;;4977295;28;20113;-64
2022/06/24 14:33:56;;;;;;;2.58;0.20;;;;;;;;;;4981020;28;20042;-64
2022/06/24 14:36:22;;;;;;;2.95;0.25;;;;;;;;;;4980924;28;20046;-64
2022/06/24 14:41:32;;;;;;;1.55;0.22;;;;;;;;;;4983227;28;20026;-64
2022/06/24 14:43:59;;;;;;;1.55;0.22;;;;;;;;;;4992668;28;20029;-64
2022/06/24 14:46:25;;;;;;;0.25;0.20;;;;;;;;;;4989275;28;20037;-64
2022/06/24 14:48:51;;;;;;;1.77;0.40;;;;;;;;;;4982959;28;20520;-64
2022/06/24 14:51:17;;;;;;;1.60;0.47;;;;;;;;;;4977460;28;20506;-64